Time;durP1;ratioP1;P1;durP2;ratioP2;P2;SDS_P1;SDS_P2;PMS_P1;PMS_P2;Temp;Humidity;BMP_temperature;BMP_pressure;BME280_temperature;BME280_humidity;BME280_pressure;Samples;Min_cycle;Max_cycle;Signal;HPM_P1;HPM_P2
2024/02/13 00:02:19;;;;;;;4.00;1.58;;;;;;;;;;5027284;28;58196;-76
2024/02/13 00:04:44;;;;;;;2.95;1.98;;;;;;;;;;5024711;28;59832;-75
2024/02/13 00:07:09;;;;;;;3.90;1.70;;;;;;;;;;5026893;28;57831;-75
2024/02/13 00:09:34;;;;;;;1.55;1.35;;;;;;;;;;5026857;28;58359;-75
2024/02/13 00:12:00;;;;;;;4.03;2.58;;;;;;;;;;5028837;28;58074;-75
2024/02/13 00:14:26;;;;;;;2.15;1.50;;;;;;;;;;5025667;28;58251;-76
2024/02/13 00:16:51;;;;;;;3.92;2.30;;;;;;;;;;5026962;28;59747;-75
2024/02/13 00:19:16;;;;;;;3.92;1.75;;;;;;;;;;5026198;27;58269;-76
2024/02/13 00:21:43;;;;;;;5.60;2.20;;;;;;;;;;5027626;27;58640;-75
2024/02/13 00:24:08;;;;;;;3.00;1.85;;;;;;;;;;5028060;28;59943;-76
2024/02/13 00:26:34;;;;;;;3.70;2.07;;;;;;;;;;5028826;28;57835;-75
2024/02/13 00:29:00;;;;;;;3.53;1.90;;;;;;;;;;5028409;28;58710;-76
2024/02/13 00:31:25;;;;;;;2.42;1.65;;;;;;;;;;5025489;28;58856;-75
2024/02/13 00:33:51;;;;;;;3.17;2.23;;;;;;;;;;5026936;28;58353;-75
2024/02/13 00:36:17;;;;;;;3.47;2.10;;;;;;;;;;5025602;28;58354;-75
2024/02/13 00:38:43;;;;;;;1.88;1.55;;;;;;;;;;5027917;28;58095;-75
2024/02/13 00:41:08;;;;;;;3.30;1.73;;;;;;;;;;5025640;28;58893;-76
2024/02/13 00:43:35;;;;;;;1.97;1.57;;;;;;;;;;5025611;28;58267;-75
2024/02/13 00:46:00;;;;;;;4.18;1.90;;;;;;;;;;5020704;28;57952;-75
2024/02/13 00:48:26;;;;;;;4.17;2.30;;;;;;;;;;5001329;28;58624;-76
2024/02/13 00:50:52;;;;;;;3.53;1.38;;;;;;;;;;5000817;28;59113;-75
2024/02/13 00:53:17;;;;;;;3.63;2.28;;;;;;;;;;5018551;28;58959;-75
2024/02/13 00:55:43;;;;;;;3.10;1.90;;;;;;;;;;5016792;28;58952;-75
2024/02/13 00:58:08;;;;;;;2.57;1.77;;;;;;;;;;5013065;28;57938;-75
2024/02/13 01:00:33;;;;;;;4.70;1.77;;;;;;;;;;5027796;28;58722;-75
2024/02/13 01:02:58;;;;;;;2.22;1.70;;;;;;;;;;5005162;28;57899;-75
2024/02/13 01:05:24;;;;;;;4.53;1.40;;;;;;;;;;5003816;28;57871;-76
2024/02/13 01:07:51;;;;;;;3.83;1.50;;;;;;;;;;5019344;28;57942;-75
2024/02/13 01:10:17;;;;;;;2.83;1.70;;;;;;;;;;5024007;27;58996;-75
2024/02/13 01:12:42;;;;;;;5.15;2.38;;;;;;;;;;5028112;28;57782;-75
2024/02/13 01:15:07;;;;;;;3.65;1.88;;;;;;;;;;5008166;28;58751;-75
2024/02/13 01:17:33;;;;;;;3.03;2.07;;;;;;;;;;5010231;28;57946;-76
2024/02/13 01:19:58;;;;;;;2.40;1.33;;;;;;;;;;5018698;28;59364;-76
2024/02/13 01:22:23;;;;;;;2.63;1.33;;;;;;;;;;5025426;28;58994;-75
2024/02/13 01:24:48;;;;;;;2.75;1.70;;;;;;;;;;5028282;28;57979;-75
2024/02/13 01:27:15;;;;;;;2.10;1.30;;;;;;;;;;5027968;28;57874;-75
2024/02/13 01:29:40;;;;;;;3.08;2.17;;;;;;;;;;5025922;28;60614;-75
2024/02/13 01:32:05;;;;;;;2.00;1.50;;;;;;;;;;5024350;28;58051;-75
2024/02/13 01:34:30;;;;;;;4.43;2.03;;;;;;;;;;5025123;28;58644;-75
2024/02/13 01:36:59;;;;;;;2.63;1.58;;;;;;;;;;5024565;28;57811;-75
2024/02/13 01:39:24;;;;;;;3.28;1.35;;;;;;;;;;5026560;28;58642;-76
2024/02/13 01:41:50;;;;;;;2.57;2.33;;;;;;;;;;5026061;28;58940;-75
2024/02/13 01:44:15;;;;;;;2.17;1.40;;;;;;;;;;5027576;28;58067;-75
2024/02/13 01:46:40;;;;;;;2.90;1.60;;;;;;;;;;5025381;28;58548;-75
2024/02/13 01:49:06;;;;;;;4.00;1.40;;;;;;;;;;5024551;28;59044;-75
2024/02/13 01:51:34;;;;;;;2.83;2.00;;;;;;;;;;5025305;28;57868;-75
2024/02/13 01:54:01;;;;;;;2.03;1.77;;;;;;;;;;5023712;28;58554;-75
2024/02/13 01:56:28;;;;;;;2.80;1.38;;;;;;;;;;5024167;28;59749;-75
2024/02/13 01:58:54;;;;;;;4.18;2.00;;;;;;;;;;5025134;28;59222;-75
2024/02/13 02:01:19;;;;;;;1.77;1.15;;;;;;;;;;5025905;28;57907;-75
2024/02/13 02:03:44;;;;;;;2.65;1.60;;;;;;;;;;5026233;28;57988;-75
2024/02/13 02:06:10;;;;;;;2.38;1.80;;;;;;;;;;5024841;28;58484;-75
2024/02/13 02:08:35;;;;;;;3.63;1.40;;;;;;;;;;5024588;28;58153;-76
2024/02/13 02:11:00;;;;;;;2.30;1.10;;;;;;;;;;5025438;28;57901;-75
2024/02/13 02:13:29;;;;;;;2.65;1.10;;;;;;;;;;5026458;28;58122;-76
2024/02/13 02:15:54;;;;;;;2.97;1.45;;;;;;;;;;5022707;28;59848;-76
2024/02/13 02:18:20;;;;;;;2.22;2.03;;;;;;;;;;5027151;28;58372;-75
2024/02/13 02:20:45;;;;;;;2.85;1.70;;;;;;;;;;5024627;28;58386;-76
2024/02/13 02:23:11;;;;;;;1.57;1.47;;;;;;;;;;5025835;28;58124;-75
2024/02/13 02:25:37;;;;;;;2.17;1.48;;;;;;;;;;5026844;28;59472;-75
2024/02/13 02:28:02;;;;;;;3.07;1.53;;;;;;;;;;5024538;28;59134;-75
2024/02/13 02:30:27;;;;;;;2.07;1.87;;;;;;;;;;5024316;28;57805;-75
2024/02/13 02:32:52;;;;;;;1.52;1.27;;;;;;;;;;5024632;28;58239;-75
2024/02/13 02:35:17;;;;;;;2.10;1.33;;;;;;;;;;5023235;28;57944;-75
2024/02/13 02:37:47;;;;;;;2.07;1.60;;;;;;;;;;5024318;28;57895;-73
2024/02/13 02:40:14;;;;;;;1.92;1.55;;;;;;;;;;5025976;28;58739;-73
2024/02/13 02:42:39;;;;;;;3.25;1.67;;;;;;;;;;5025752;28;58024;-72
2024/02/13 02:45:06;;;;;;;4.13;2.88;;;;;;;;;;5023396;28;58075;-73
2024/02/13 02:47:31;;;;;;;2.33;1.33;;;;;;;;;;5024358;28;59069;-73
2024/02/13 02:49:56;;;;;;;1.80;1.17;;;;;;;;;;5029612;28;58147;-73
2024/02/13 02:52:21;;;;;;;2.93;1.77;;;;;;;;;;5027840;28;57838;-72
2024/02/13 02:54:47;;;;;;;4.57;1.53;;;;;;;;;;5027570;28;59180;-72
2024/02/13 02:57:12;;;;;;;2.60;1.27;;;;;;;;;;5028716;28;57845;-72
2024/02/13 02:59:37;;;;;;;5.10;1.63;;;;;;;;;;5026030;28;58786;-73
2024/02/13 03:02:02;;;;;;;2.75;1.48;;;;;;;;;;5026965;28;58114;-73
2024/02/13 03:04:27;;;;;;;3.37;1.90;;;;;;;;;;5027607;28;58054;-73
2024/02/13 03:06:53;;;;;;;2.33;1.20;;;;;;;;;;5027193;28;59032;-72
2024/02/13 03:09:18;;;;;;;2.83;1.20;;;;;;;;;;5028951;28;58039;-72
2024/02/13 03:11:43;;;;;;;1.70;1.20;;;;;;;;;;5028345;28;57958;-73
2024/02/13 03:14:09;;;;;;;2.47;1.83;;;;;;;;;;5026412;28;59227;-73
2024/02/13 03:16:35;;;;;;;1.63;1.35;;;;;;;;;;5029350;28;57818;-72
2024/02/13 03:19:01;;;;;;;1.67;1.13;;;;;;;;;;5027040;28;59734;-73
2024/02/13 03:21:26;;;;;;;3.50;1.60;;;;;;;;;;5029403;28;59662;-73
2024/02/13 03:23:51;;;;;;;1.17;0.97;;;;;;;;;;5028150;28;59483;-72
2024/02/13 03:26:17;;;;;;;1.42;1.33;;;;;;;;;;5026762;28;58717;-72
2024/02/13 03:28:42;;;;;;;3.20;1.50;;;;;;;;;;5028078;28;58065;-75
2024/02/13 03:31:07;;;;;;;1.33;1.10;;;;;;;;;;5027941;28;58588;-75
2024/02/13 03:33:32;;;;;;;2.23;1.33;;;;;;;;;;5028690;28;59050;-75
2024/02/13 03:35:58;;;;;;;1.70;1.45;;;;;;;;;;5005877;28;58056;-75
2024/02/13 03:38:23;;;;;;;6.18;2.50;;;;;;;;;;5002041;28;57818;-75
2024/02/13 03:40:48;;;;;;;1.37;1.07;;;;;;;;;;5014313;28;58723;-75
2024/02/13 03:43:14;;;;;;;1.67;1.40;;;;;;;;;;5029692;28;57877;-75
2024/02/13 03:45:39;;;;;;;2.20;2.00;;;;;;;;;;5027769;28;58873;-76
2024/02/13 03:48:04;;;;;;;5.00;1.97;;;;;;;;;;5027805;28;58718;-75
2024/02/13 03:50:29;;;;;;;2.78;1.30;;;;;;;;;;5017599;28;58379;-75
2024/02/13 03:52:56;;;;;;;4.07;1.98;;;;;;;;;;5022066;28;58898;-75
2024/02/13 03:55:21;;;;;;;3.35;1.52;;;;;;;;;;5021488;28;57784;-75
2024/02/13 03:57:46;;;;;;;1.75;1.02;;;;;;;;;;5009186;28;58783;-75
2024/02/13 04:00:11;;;;;;;2.08;1.48;;;;;;;;;;5009972;28;57834;-75
2024/02/13 04:02:38;;;;;;;3.33;2.22;;;;;;;;;;5024517;28;57853;-75
2024/02/13 04:05:05;;;;;;;2.22;1.45;;;;;;;;;;5027176;28;58668;-75
2024/02/13 04:07:30;;;;;;;1.83;1.10;;;;;;;;;;5020033;28;58183;-75
2024/02/13 04:09:55;;;;;;;3.10;1.50;;;;;;;;;;5010207;28;59038;-75
2024/02/13 04:12:21;;;;;;;1.85;1.50;;;;;;;;;;5025996;28;58644;-75
2024/02/13 04:14:46;;;;;;;2.95;1.08;;;;;;;;;;5028504;28;57997;-75
2024/02/13 04:17:12;;;;;;;2.30;1.30;;;;;;;;;;5016972;28;58954;-75
2024/02/13 04:19:38;;;;;;;2.13;1.77;;;;;;;;;;5014888;28;58862;-75
2024/02/13 04:22:04;;;;;;;3.08;1.25;;;;;;;;;;5024666;28;58138;-75
2024/02/13 04:24:29;;;;;;;2.67;1.60;;;;;;;;;;5009868;28;57936;-76
2024/02/13 04:26:54;;;;;;;3.17;1.33;;;;;;;;;;5026419;28;58659;-75
2024/02/13 04:29:19;;;;;;;1.47;1.27;;;;;;;;;;5027499;28;57867;-75
2024/02/13 04:31:45;;;;;;;6.25;1.60;;;;;;;;;;5024269;28;59497;-75
2024/02/13 04:34:10;;;;;;;1.87;1.33;;;;;;;;;;5027186;28;58153;-75
2024/02/13 04:36:37;;;;;;;1.67;1.20;;;;;;;;;;5029209;28;58029;-76
2024/02/13 04:39:02;;;;;;;4.28;1.05;;;;;;;;;;5024423;28;59367;-75
2024/02/13 04:41:28;;;;;;;2.17;1.40;;;;;;;;;;5027228;28;58105;-76
2024/02/13 04:43:54;;;;;;;2.87;1.13;;;;;;;;;;5026188;28;57885;-75
2024/02/13 04:46:19;;;;;;;1.45;1.35;;;;;;;;;;5026036;28;58937;-75
2024/02/13 04:48:44;;;;;;;2.27;1.53;;;;;;;;;;5027768;28;57855;-75
2024/02/13 04:51:09;;;;;;;3.03;1.50;;;;;;;;;;5028644;28;58004;-75
2024/02/13 04:53:34;;;;;;;2.73;1.50;;;;;;;;;;5006654;28;57985;-75
2024/02/13 04:56:00;;;;;;;2.03;1.67;;;;;;;;;;5005855;28;58642;-76
2024/02/13 04:58:29;;;;;;;3.60;1.10;;;;;;;;;;5013007;28;58830;-75
2024/02/13 05:01:05;;;;;;;1.80;1.63;;;;;;;;;;5025148;28;58235;-75
2024/02/13 05:03:42;;;;;;;2.13;1.25;;;;;;;;;;5027726;28;58671;-75
2024/02/13 05:08:55;;;;;;;1.45;0.93;;;;;;;;;;5013776;28;58079;-75
2024/02/13 05:11:24;;;;;;;2.53;1.80;;;;;;;;;;5024969;27;58320;-75
2024/02/13 05:13:50;;;;;;;1.55;1.40;;;;;;;;;;5023731;28;58549;-75
2024/02/13 05:16:17;;;;;;;1.40;1.25;;;;;;;;;;5026103;28;59404;-75
2024/02/13 05:18:43;;;;;;;1.30;1.15;;;;;;;;;;5025729;28;58920;-75
2024/02/13 05:21:08;;;;;;;5.43;1.47;;;;;;;;;;5005079;28;57869;-75
2024/02/13 05:23:34;;;;;;;1.40;0.98;;;;;;;;;;5006246;28;58566;-75
2024/02/13 05:25:59;;;;;;;2.67;1.38;;;;;;;;;;5001565;28;58918;-75
2024/02/13 05:28:24;;;;;;;1.75;1.50;;;;;;;;;;5010297;28;58291;-75
2024/02/13 05:30:49;;;;;;;1.67;1.20;;;;;;;;;;5026039;28;59428;-75
2024/02/13 05:33:15;;;;;;;2.50;1.25;;;;;;;;;;5028582;28;57908;-75
2024/02/13 05:35:44;;;;;;;3.00;1.42;;;;;;;;;;5023507;28;58567;-75
2024/02/13 05:38:09;;;;;;;3.47;1.83;;;;;;;;;;5024397;28;59283;-77
2024/02/13 05:40:36;;;;;;;2.78;1.63;;;;;;;;;;5025554;28;58388;-77
2024/02/13 05:43:01;;;;;;;3.40;2.17;;;;;;;;;;5025810;28;58730;-76
2024/02/13 05:45:26;;;;;;;4.57;3.00;;;;;;;;;;5006249;28;58969;-76
2024/02/13 05:47:51;;;;;;;9.80;3.45;;;;;;;;;;5024959;28;58505;-73
2024/02/13 05:50:18;;;;;;;5.67;2.43;;;;;;;;;;5024897;28;58753;-73
2024/02/13 05:52:47;;;;;;;5.50;2.85;;;;;;;;;;5024987;28;58643;-73
2024/02/13 05:55:12;;;;;;;4.45;2.75;;;;;;;;;;5024041;28;59605;-72
2024/02/13 05:57:38;;;;;;;4.20;2.77;;;;;;;;;;5024841;28;58000;-72
2024/02/13 06:00:03;;;;;;;6.43;3.53;;;;;;;;;;5026135;28;57832;-73
2024/02/13 06:02:30;;;;;;;6.82;3.75;;;;;;;;;;5024516;28;58626;-73
2024/02/13 06:04:55;;;;;;;13.45;4.05;;;;;;;;;;5023313;28;58205;-73
2024/02/13 06:07:20;;;;;;;5.77;3.00;;;;;;;;;;5025664;28;57884;-73
2024/02/13 06:09:45;;;;;;;7.67;3.60;;;;;;;;;;5026876;28;58052;-76
2024/02/13 06:12:10;;;;;;;10.10;4.22;;;;;;;;;;5025832;28;57855;-77
2024/02/13 06:14:36;;;;;;;6.03;3.13;;;;;;;;;;5027468;28;57841;-76
2024/02/13 06:17:01;;;;;;;13.73;5.15;;;;;;;;;;5022946;28;59909;-76
2024/02/13 06:19:26;;;;;;;8.17;3.60;;;;;;;;;;5023732;28;57989;-75
2024/02/13 06:21:51;;;;;;;10.15;4.65;;;;;;;;;;5024455;28;57867;-76
2024/02/13 06:24:16;;;;;;;9.10;5.63;;;;;;;;;;5024656;28;58662;-76
2024/02/13 06:26:44;;;;;;;11.73;4.73;;;;;;;;;;5023714;28;57882;-76
2024/02/13 06:29:09;;;;;;;15.77;4.82;;;;;;;;;;5025688;28;58671;-75
2024/02/13 06:31:35;;;;;;;13.47;5.00;;;;;;;;;;5024908;28;58774;-76
2024/02/13 06:34:00;;;;;;;9.73;3.87;;;;;;;;;;5025661;28;58193;-76
2024/02/13 06:36:26;;;;;;;11.53;5.27;;;;;;;;;;5025349;28;58101;-76
2024/02/13 06:38:51;;;;;;;11.13;4.30;;;;;;;;;;5026029;28;57871;-75
2024/02/13 06:41:17;;;;;;;11.50;5.55;;;;;;;;;;5024380;28;58061;-76
2024/02/13 06:43:42;;;;;;;14.48;4.60;;;;;;;;;;5025637;28;58271;-76
2024/02/13 06:46:09;;;;;;;11.33;3.83;;;;;;;;;;5024796;28;57917;-76
2024/02/13 06:48:34;;;;;;;11.40;4.50;;;;;;;;;;5023771;28;59604;-76
2024/02/13 06:51:00;;;;;;;11.23;4.93;;;;;;;;;;5024835;28;59029;-75
2024/02/13 06:53:25;;;;;;;11.03;5.53;;;;;;;;;;5024841;28;58115;-76
2024/02/13 06:55:50;;;;;;;9.43;4.13;;;;;;;;;;5026111;28;59181;-75
2024/02/13 06:58:17;;;;;;;11.53;4.30;;;;;;;;;;5023702;28;58023;-76
2024/02/13 07:00:42;;;;;;;13.25;6.07;;;;;;;;;;5026210;28;58531;-76
2024/02/13 07:03:07;;;;;;;8.77;4.85;;;;;;;;;;5026465;28;58121;-75
2024/02/13 07:05:32;;;;;;;13.23;5.70;;;;;;;;;;5024167;28;57825;-76
2024/02/13 07:07:58;;;;;;;10.77;5.07;;;;;;;;;;5025389;28;58452;-75
2024/02/13 07:10:23;;;;;;;11.73;4.70;;;;;;;;;;5023078;28;59141;-76
2024/02/13 07:12:48;;;;;;;10.65;4.78;;;;;;;;;;5024693;28;58002;-75
2024/02/13 07:15:13;;;;;;;8.33;4.90;;;;;;;;;;5024993;28;59370;-76
2024/02/13 07:17:39;;;;;;;7.05;4.00;;;;;;;;;;5025696;28;58754;-76
2024/02/13 07:20:04;;;;;;;10.63;4.83;;;;;;;;;;5025566;28;59030;-75
2024/02/13 07:22:29;;;;;;;12.88;6.75;;;;;;;;;;5023753;28;59282;-75
2024/02/13 07:24:55;;;;;;;13.23;5.40;;;;;;;;;;5026066;28;58173;-76
2024/02/13 07:27:20;;;;;;;12.43;5.40;;;;;;;;;;5024287;28;57888;-76
2024/02/13 07:29:46;;;;;;;14.25;5.15;;;;;;;;;;5023895;28;58796;-76
2024/02/13 07:32:11;;;;;;;15.37;4.53;;;;;;;;;;5025433;28;58112;-76
2024/02/13 07:34:42;;;;;;;7.15;4.05;;;;;;;;;;5028596;28;59455;-75
2024/02/13 07:37:08;;;;;;;16.33;5.05;;;;;;;;;;5027516;28;57861;-76
2024/02/13 07:39:33;;;;;;;10.80;4.72;;;;;;;;;;5030031;28;57851;-76
2024/02/13 07:41:58;;;;;;;11.98;4.60;;;;;;;;;;5030431;28;59272;-76
2024/02/13 07:44:24;;;;;;;11.57;5.23;;;;;;;;;;5029208;28;57875;-76
2024/02/13 07:46:49;;;;;;;13.67;4.50;;;;;;;;;;5029222;28;58690;-76
2024/02/13 07:49:14;;;;;;;11.27;5.53;;;;;;;;;;5025913;28;58730;-76
2024/02/13 07:51:40;;;;;;;11.25;5.55;;;;;;;;;;5029031;28;57783;-76
2024/02/13 07:54:05;;;;;;;10.10;4.50;;;;;;;;;;5026971;28;59553;-76
2024/02/13 07:56:30;;;;;;;11.88;5.47;;;;;;;;;;5027254;27;59434;-76
2024/02/13 07:58:58;;;;;;;9.63;4.80;;;;;;;;;;5027615;28;58193;-75
2024/02/13 08:01:25;;;;;;;9.90;5.43;;;;;;;;;;5028215;28;58470;-75
2024/02/13 08:03:50;;;;;;;14.85;5.68;;;;;;;;;;5025824;28;58112;-76
2024/02/13 08:06:15;;;;;;;7.10;4.20;;;;;;;;;;5026658;28;58737;-76
2024/02/13 08:08:40;;;;;;;14.80;5.72;;;;;;;;;;5028681;28;57865;-76
2024/02/13 08:11:06;;;;;;;8.53;4.03;;;;;;;;;;5027603;28;58745;-76
2024/02/13 08:13:31;;;;;;;10.75;4.82;;;;;;;;;;5028090;28;58574;-75
2024/02/13 08:15:57;;;;;;;13.20;5.00;;;;;;;;;;5025929;28;58334;-75
2024/02/13 08:18:23;;;;;;;9.70;4.43;;;;;;;;;;5028615;28;57872;-76
2024/02/13 08:20:49;;;;;;;8.40;4.57;;;;;;;;;;5028118;27;59019;-76
2024/02/13 08:23:14;;;;;;;13.17;5.03;;;;;;;;;;5026693;28;58114;-76
2024/02/13 08:25:39;;;;;;;11.23;3.93;;;;;;;;;;5026616;28;58477;-75
2024/02/13 08:28:04;;;;;;;11.70;5.45;;;;;;;;;;5026342;28;57894;-76
2024/02/13 08:30:30;;;;;;;11.63;4.22;;;;;;;;;;5028697;28;58278;-75
2024/02/13 08:32:56;;;;;;;10.93;5.85;;;;;;;;;;5028924;27;57860;-75
2024/02/13 08:35:21;;;;;;;10.27;5.18;;;;;;;;;;5027588;28;58847;-76
2024/02/13 08:37:47;;;;;;;14.57;4.60;;;;;;;;;;5025649;28;58128;-75
2024/02/13 08:40:15;;;;;;;11.43;5.90;;;;;;;;;;5027305;28;58541;-76
2024/02/13 08:42:40;;;;;;;9.27;5.07;;;;;;;;;;5025929;28;60032;-75
2024/02/13 08:45:06;;;;;;;8.57;4.18;;;;;;;;;;5029189;28;57863;-75
2024/02/13 08:47:31;;;;;;;14.20;5.78;;;;;;;;;;5024742;28;58713;-76
2024/02/13 08:49:57;;;;;;;7.67;4.57;;;;;;;;;;5027212;28;58038;-75
2024/02/13 08:52:22;;;;;;;11.45;5.80;;;;;;;;;;5026611;28;58625;-76
2024/02/13 08:54:47;;;;;;;11.17;4.50;;;;;;;;;;5022570;28;58823;-76
2024/02/13 08:57:14;;;;;;;8.32;4.68;;;;;;;;;;5026717;28;58202;-76
2024/02/13 08:59:40;;;;;;;6.93;4.07;;;;;;;;;;5026090;28;58709;-76
2024/02/13 09:02:08;;;;;;;7.60;3.78;;;;;;;;;;5025630;28;58765;-75
2024/02/13 09:04:33;;;;;;;10.95;4.88;;;;;;;;;;5028140;28;57726;-75
2024/02/13 09:06:58;;;;;;;8.07;4.03;;;;;;;;;;5026150;28;59711;-76
2024/02/13 09:09:25;;;;;;;9.83;4.30;;;;;;;;;;5026762;28;58279;-75
2024/02/13 09:11:50;;;;;;;10.48;4.75;;;;;;;;;;5028895;28;58867;-75
2024/02/13 09:14:15;;;;;;;6.38;3.70;;;;;;;;;;5026609;28;58790;-75
2024/02/13 09:16:40;;;;;;;7.40;4.25;;;;;;;;;;5026110;28;57843;-75
2024/02/13 09:19:07;;;;;;;13.27;5.75;;;;;;;;;;5027152;28;58682;-76
2024/02/13 09:21:32;;;;;;;9.27;4.40;;;;;;;;;;5025641;28;58806;-76
2024/02/13 09:23:57;;;;;;;6.50;4.00;;;;;;;;;;5027307;28;57888;-76
2024/02/13 09:26:23;;;;;;;5.50;2.93;;;;;;;;;;5023938;28;57853;-76
2024/02/13 09:28:48;;;;;;;7.60;3.58;;;;;;;;;;5025771;28;58069;-75
2024/02/13 09:31:16;;;;;;;9.83;3.93;;;;;;;;;;5027860;28;57853;-75
2024/02/13 09:33:41;;;;;;;7.63;4.18;;;;;;;;;;5026532;28;60796;-75
2024/02/13 09:36:08;;;;;;;8.77;3.85;;;;;;;;;;5027550;28;58028;-75
2024/02/13 09:38:35;;;;;;;9.55;4.00;;;;;;;;;;5025355;28;58965;-76
2024/02/13 09:41:03;;;;;;;8.03;3.87;;;;;;;;;;5024178;28;59356;-77
2024/02/13 09:43:29;;;;;;;7.60;4.43;;;;;;;;;;5028285;28;57862;-77
2024/02/13 09:45:55;;;;;;;6.87;2.97;;;;;;;;;;5024929;28;59566;-75
2024/02/13 09:48:21;;;;;;;6.00;3.75;;;;;;;;;;5024737;28;58829;-78
2024/02/13 09:50:47;;;;;;;9.05;4.65;;;;;;;;;;5026030;28;58526;-77
2024/02/13 09:53:31;;;;;;;4.55;3.22;;;;;;;;;;5024675;28;57909;-76
2024/02/13 09:56:00;;;;;;;7.20;3.35;;;;;;;;;;5024487;28;58024;-75
2024/02/13 09:58:25;;;;;;;6.28;4.18;;;;;;;;;;5025041;28;58003;-76
2024/02/13 10:00:51;;;;;;;6.97;3.97;;;;;;;;;;5025016;28;58820;-75
2024/02/13 10:03:16;;;;;;;7.00;3.15;;;;;;;;;;5025472;28;57917;-77
2024/02/13 10:05:42;;;;;;;5.57;3.43;;;;;;;;;;5026687;28;58842;-77
2024/02/13 10:08:08;;;;;;;6.60;2.88;;;;;;;;;;5027143;28;58811;-76
2024/02/13 10:10:33;;;;;;;6.45;2.95;;;;;;;;;;5025443;28;58134;-75
2024/02/13 10:12:59;;;;;;;4.57;2.77;;;;;;;;;;5023836;28;58018;-76
2024/02/13 10:15:25;;;;;;;7.43;3.85;;;;;;;;;;5024730;28;57674;-76
2024/02/13 10:17:51;;;;;;;8.63;4.32;;;;;;;;;;5025242;28;58657;-75
2024/02/13 10:20:17;;;;;;;6.20;3.38;;;;;;;;;;5024932;28;58888;-78
2024/02/13 10:22:49;;;;;;;5.95;4.18;;;;;;;;;;5026161;28;57848;-76
2024/02/13 10:25:21;;;;;;;7.93;3.08;;;;;;;;;;5024777;28;59224;-76
2024/02/13 10:27:46;;;;;;;6.07;3.28;;;;;;;;;;5024044;28;59271;-75
2024/02/13 10:30:20;;;;;;;6.93;4.07;;;;;;;;;;5024453;28;58167;-75
2024/02/13 10:32:45;;;;;;;7.47;3.70;;;;;;;;;;5023392;28;58391;-75
2024/02/13 10:35:11;;;;;;;6.80;3.63;;;;;;;;;;5023592;28;58101;-76
2024/02/13 10:37:36;;;;;;;4.78;3.10;;;;;;;;;;5026710;28;59289;-75
2024/02/13 10:40:02;;;;;;;9.80;4.63;;;;;;;;;;5022510;28;57923;-72
2024/02/13 10:42:30;;;;;;;5.00;2.75;;;;;;;;;;5025306;28;57871;-72
2024/02/13 10:45:01;;;;;;;5.45;2.63;;;;;;;;;;5027339;28;58732;-72
2024/02/13 10:47:28;;;;;;;7.72;3.30;;;;;;;;;;5022207;28;59005;-73
2024/02/13 10:49:57;;;;;;;4.80;2.93;;;;;;;;;;5022881;28;57605;-76
2024/02/13 10:52:22;;;;;;;7.78;2.67;;;;;;;;;;5024839;28;58577;-75
2024/02/13 10:54:48;;;;;;;7.93;3.88;;;;;;;;;;5025333;28;59812;-76
2024/02/13 10:57:15;;;;;;;5.88;2.90;;;;;;;;;;5025532;28;58590;-76
2024/02/13 10:59:41;;;;;;;4.30;3.28;;;;;;;;;;5025545;28;59934;-75
2024/02/13 11:02:07;;;;;;;7.40;3.10;;;;;;;;;;5024156;28;57901;-75
2024/02/13 11:04:33;;;;;;;5.38;3.03;;;;;;;;;;5024680;28;58681;-75
2024/02/13 11:06:58;;;;;;;4.38;2.97;;;;;;;;;;5023658;28;58738;-75
2024/02/13 11:09:25;;;;;;;4.00;3.25;;;;;;;;;;5027264;28;58322;-76
2024/02/13 11:11:51;;;;;;;6.65;3.38;;;;;;;;;;5027308;28;58520;-75
2024/02/13 11:14:17;;;;;;;4.30;2.85;;;;;;;;;;5028602;28;58974;-75
2024/02/13 11:16:49;;;;;;;6.60;2.78;;;;;;;;;;5028229;28;58943;-75
2024/02/13 11:19:15;;;;;;;3.85;2.67;;;;;;;;;;5025929;28;58851;-75
2024/02/13 11:21:41;;;;;;;5.07;2.83;;;;;;;;;;5029683;28;58130;-75
2024/02/13 11:24:08;;;;;;;5.07;3.13;;;;;;;;;;5031530;28;59320;-75
2024/02/13 11:26:37;;;;;;;5.53;3.17;;;;;;;;;;5029226;28;58829;-75
2024/02/13 11:29:09;;;;;;;6.20;3.10;;;;;;;;;;5028631;28;58164;-75
2024/02/13 11:31:35;;;;;;;4.68;2.70;;;;;;;;;;5029329;28;58379;-75
2024/02/13 11:34:04;;;;;;;4.03;2.70;;;;;;;;;;5028026;28;59891;-75
2024/02/13 11:36:30;;;;;;;3.45;2.58;;;;;;;;;;5028266;28;58087;-74
2024/02/13 11:38:57;;;;;;;6.05;3.97;;;;;;;;;;5026709;28;59036;-75
2024/02/13 11:41:22;;;;;;;4.65;3.15;;;;;;;;;;5026451;27;57940;-75
2024/02/13 11:43:48;;;;;;;7.35;3.80;;;;;;;;;;5026074;28;59002;-76
2024/02/13 11:46:13;;;;;;;5.07;2.60;;;;;;;;;;5025643;28;59800;-75
2024/02/13 11:48:39;;;;;;;6.27;2.83;;;;;;;;;;5029133;28;57750;-75
2024/02/13 11:51:05;;;;;;;6.20;3.30;;;;;;;;;;5026624;28;63182;-75
2024/02/13 11:53:30;;;;;;;6.57;3.17;;;;;;;;;;5025740;28;59819;-75
2024/02/13 11:55:56;;;;;;;2.65;1.80;;;;;;;;;;5028637;28;58253;-75
2024/02/13 11:58:22;;;;;;;4.60;3.23;;;;;;;;;;5028113;28;58508;-75
2024/02/13 12:01:06;;;;;;;3.17;2.75;;;;;;;;;;5028613;27;57894;-77
2024/02/13 12:03:32;;;;;;;5.53;2.65;;;;;;;;;;5026759;28;58555;-77
2024/02/13 12:05:59;;;;;;;5.10;3.05;;;;;;;;;;5027137;28;59051;-76
2024/02/13 12:08:24;;;;;;;6.28;3.78;;;;;;;;;;5027185;28;59005;-77
2024/02/13 12:10:49;;;;;;;4.25;3.05;;;;;;;;;;5026977;28;57903;-77
2024/02/13 12:13:18;;;;;;;5.03;2.70;;;;;;;;;;5025379;28;58795;-75
2024/02/13 12:15:44;;;;;;;;;;;;;;;;;;5030488;28;58497;-76
2024/02/13 12:18:11;;;;;;;6.00;2.58;;;;;;;;;;5029160;28;59565;-77
2024/02/13 12:20:37;;;;;;;6.50;2.42;;;;;;;;;;5026822;28;58902;-76
2024/02/13 12:23:06;;;;;;;4.40;3.00;;;;;;;;;;5026983;28;58546;-76
2024/02/13 12:25:31;;;;;;;4.10;2.92;;;;;;;;;;5024841;28;59884;-77
2024/02/13 12:28:00;;;;;;;5.38;2.50;;;;;;;;;;5025916;28;57871;-76
2024/02/13 12:30:26;;;;;;;6.80;3.65;;;;;;;;;;5028407;28;59043;-76
2024/02/13 12:32:51;;;;;;;5.25;2.50;;;;;;;;;;5024685;28;59916;-77
2024/02/13 12:35:25;;;;;;;5.25;3.08;;;;;;;;;;5023954;28;58065;-76
2024/02/13 12:37:54;;;;;;;6.53;3.25;;;;;;;;;;5016607;28;59673;-77
2024/02/13 12:40:20;;;;;;;7.82;3.38;;;;;;;;;;5010848;28;59139;-77
2024/02/13 12:42:45;;;;;;;6.82;3.83;;;;;;;;;;5024119;28;58331;-76
2024/02/13 12:45:10;;;;;;;8.00;3.47;;;;;;;;;;5003753;28;59038;-77
2024/02/13 12:47:36;;;;;;;5.93;2.78;;;;;;;;;;5004640;28;58095;-77
2024/02/13 12:50:02;;;;;;;6.47;2.97;;;;;;;;;;5008528;28;58548;-77
2024/02/13 12:52:29;;;;;;;6.60;3.30;;;;;;;;;;5013996;28;59022;-76
2024/02/13 12:54:56;;;;;;;4.22;3.03;;;;;;;;;;5024939;27;57908;-77
2024/02/13 12:57:21;;;;;;;5.53;2.92;;;;;;;;;;5027932;28;58593;-76
2024/02/13 12:59:47;;;;;;;5.25;3.25;;;;;;;;;;5027233;28;58289;-77
2024/02/13 13:02:13;;;;;;;6.13;2.22;;;;;;;;;;5025843;28;58080;-76
2024/02/13 13:04:39;;;;;;;4.15;2.78;;;;;;;;;;5028173;28;58817;-77
2024/02/13 13:07:05;;;;;;;2.05;1.58;;;;;;;;;;5025892;28;58139;-76
2024/02/13 13:09:31;;;;;;;4.32;3.20;;;;;;;;;;5028490;28;59754;-73
2024/02/13 13:11:56;;;;;;;3.95;2.75;;;;;;;;;;5025378;28;59711;-73
2024/02/13 13:14:22;;;;;;;4.70;2.93;;;;;;;;;;5024330;28;57995;-74
2024/02/13 13:16:48;;;;;;;3.67;2.08;;;;;;;;;;5025254;28;58563;-74
2024/02/13 13:19:13;;;;;;;3.37;2.23;;;;;;;;;;5022615;28;59970;-73
2024/02/13 13:21:39;;;;;;;7.65;3.00;;;;;;;;;;5008121;28;57902;-74
2024/02/13 13:24:05;;;;;;;3.22;2.00;;;;;;;;;;5008640;28;63069;-73
2024/02/13 13:26:33;;;;;;;2.70;2.00;;;;;;;;;;5020853;28;58108;-73
2024/02/13 13:29:16;;;;;;;4.57;2.10;;;;;;;;;;5027344;28;58917;-73
2024/02/13 13:31:43;;;;;;;3.58;2.30;;;;;;;;;;5024250;28;58357;-73
2024/02/13 13:34:09;;;;;;;4.75;2.40;;;;;;;;;;5025430;28;57842;-74
2024/02/13 13:36:35;;;;;;;3.90;2.30;;;;;;;;;;5006972;28;58194;-73
2024/02/13 13:39:01;;;;;;;4.32;2.30;;;;;;;;;;5025539;28;59285;-74
2024/02/13 13:41:27;;;;;;;4.05;2.55;;;;;;;;;;5026753;28;58078;-73
2024/02/13 13:43:52;;;;;;;3.33;2.30;;;;;;;;;;5029433;28;58507;-74
2024/02/13 13:46:17;;;;;;;4.13;2.05;;;;;;;;;;5026556;28;59808;-73
2024/02/13 13:48:43;;;;;;;3.53;1.85;;;;;;;;;;5027155;28;57840;-73
2024/02/13 13:51:09;;;;;;;4.15;3.22;;;;;;;;;;5027206;28;58999;-73
2024/02/13 13:53:35;;;;;;;6.27;3.17;;;;;;;;;;5011122;28;57712;-74
2024/02/13 13:56:00;;;;;;;3.45;2.20;;;;;;;;;;5008736;28;58576;-73
2024/02/13 13:58:26;;;;;;;3.80;2.38;;;;;;;;;;5008848;28;57722;-74
2024/02/13 14:00:51;;;;;;;3.70;2.03;;;;;;;;;;5026473;28;57817;-73
2024/02/13 14:03:17;;;;;;;5.90;2.17;;;;;;;;;;5025727;28;59618;-73
2024/02/13 14:05:44;;;;;;;3.92;1.88;;;;;;;;;;5024257;28;59259;-73
2024/02/13 14:08:09;;;;;;;4.90;2.30;;;;;;;;;;5026618;28;59045;-77
2024/02/13 14:10:34;;;;;;;3.30;2.33;;;;;;;;;;5025821;28;59867;-77
2024/02/13 14:13:00;;;;;;;4.73;2.10;;;;;;;;;;5023925;28;57941;-76
2024/02/13 14:15:29;;;;;;;4.32;2.38;;;;;;;;;;5007997;28;59385;-77
2024/02/13 14:18:00;;;;;;;3.47;2.05;;;;;;;;;;5023636;28;59059;-76
2024/02/13 14:20:26;;;;;;;2.88;2.42;;;;;;;;;;5026955;28;58105;-76
2024/02/13 14:22:54;;;;;;;4.95;1.85;;;;;;;;;;5024125;28;58436;-76
2024/02/13 14:25:20;;;;;;;3.45;1.90;;;;;;;;;;5019298;28;58759;-77
2024/02/13 14:27:46;;;;;;;7.30;3.08;;;;;;;;;;5006220;28;58140;-79
2024/02/13 14:30:12;;;;;;;5.80;2.67;;;;;;;;;;5026698;28;58568;-78
2024/02/13 14:32:37;;;;;;;4.50;2.43;;;;;;;;;;5011188;28;57899;-76
2024/02/13 14:35:02;;;;;;;8.32;3.53;;;;;;;;;;5002587;28;59313;-76
2024/02/13 14:37:28;;;;;;;4.97;2.90;;;;;;;;;;5007810;28;58708;-77